createdAt,value
2023-06-26T00:01:58.588Z,11.60
2023-06-26T00:07:01.600Z,13.80
2023-06-26T00:12:05.038Z,10.60
2023-06-26T00:17:08.020Z,11.40
2023-06-26T00:22:11.034Z,12.80
2023-06-26T00:27:14.030Z,12.20
2023-06-26T00:32:17.281Z,13.30
2023-06-26T00:37:20.232Z,12.70
2023-06-26T00:42:23.181Z,11.00
2023-06-26T00:47:26.778Z,13.10
2023-06-26T00:52:29.891Z,14.10
2023-06-26T00:57:35.546Z,13.30
2023-06-26T01:02:40.129Z,13.30
2023-06-26T01:07:46.171Z,13.10
2023-06-26T01:12:49.077Z,13.40
2023-06-26T01:17:52.252Z,14.60
2023-06-26T01:23:16.038Z,14.40
2023-06-26T01:28:19.039Z,14.30
2023-06-26T01:33:22.021Z,13.90
2023-06-26T01:38:24.936Z,14.70
2023-06-26T01:43:49.348Z,14.60
2023-06-26T01:49:04.634Z,14.50
2023-06-26T01:54:10.897Z,14.50
2023-06-26T01:59:16.740Z,12.30
2023-06-26T02:04:20.136Z,12.80
2023-06-26T02:09:23.240Z,11.80
2023-06-26T02:14:26.204Z,11.40
2023-06-26T02:19:29.056Z,13.00
2023-06-26T02:24:32.085Z,15.00
2023-06-26T02:29:34.977Z,11.70
2023-06-26T02:34:39.412Z,13.20
2023-06-26T02:39:45.333Z,13.80
2023-06-26T02:44:48.260Z,13.20
2023-06-26T02:49:51.236Z,14.20
2023-06-26T02:54:54.206Z,12.70
2023-06-26T02:59:57.135Z,14.40
2023-06-26T03:05:00.064Z,16.10
2023-06-26T03:10:03.068Z,15.50
2023-06-26T03:15:06.707Z,18.60
2023-06-26T03:20:10.479Z,18.70
2023-06-26T03:25:13.521Z,19.40
2023-06-26T03:30:16.893Z,16.10
2023-06-26T03:35:20.077Z,17.90
2023-06-26T03:40:24.570Z,15.80
2023-06-26T03:45:27.840Z,17.80
2023-06-26T03:50:30.872Z,18.00
2023-06-26T03:55:33.754Z,16.70
2023-06-26T04:00:36.729Z,14.50
2023-06-26T04:05:39.903Z,16.30
2023-06-26T04:10:43.220Z,19.30
2023-06-26T04:15:47.716Z,15.20
2023-06-26T04:21:13.633Z,13.70
2023-06-26T04:26:16.666Z,15.60
2023-06-26T04:31:19.727Z,16.40
2023-06-26T04:36:22.882Z,15.60
2023-06-26T04:41:26.409Z,13.40
2023-06-26T04:46:29.475Z,16.80
2023-06-26T04:51:32.956Z,16.80
2023-06-26T04:56:36.480Z,16.20
2023-06-26T05:01:40.812Z,13.00
2023-06-26T05:06:43.955Z,11.40
2023-06-26T05:11:46.846Z,12.10
2023-06-26T05:16:49.815Z,11.20
2023-06-26T05:21:52.717Z,10.10
2023-06-26T05:27:11.931Z,9.80
2023-06-26T05:32:18.930Z,10.40
2023-06-26T05:37:25.325Z,11.70
2023-06-26T05:42:29.374Z,13.90
2023-06-26T05:47:32.524Z,14.70
2023-06-26T05:52:36.409Z,13.90
2023-06-26T05:57:41.895Z,15.20
2023-06-26T06:02:44.939Z,15.20
2023-06-26T06:07:49.561Z,14.90
2023-06-26T06:12:53.350Z,16.50
2023-06-26T06:17:58.383Z,11.70
2023-06-26T06:23:04.523Z,11.60
2023-06-26T06:28:07.438Z,12.90
2023-06-26T06:33:10.337Z,11.60
2023-06-26T06:38:13.243Z,11.80
2023-06-26T06:43:16.683Z,10.70
2023-06-26T06:48:23.707Z,9.20
2023-06-26T06:53:26.899Z,13.00
2023-06-26T06:58:35.152Z,12.00
2023-06-26T07:03:39.452Z,8.60
2023-06-26T07:08:42.549Z,9.40
2023-06-26T07:13:48.432Z,8.20
2023-06-26T07:18:53.327Z,10.30
2023-06-26T07:23:57.711Z,8.10
2023-06-26T07:29:01.517Z,11.20
2023-06-26T07:34:04.404Z,11.30
2023-06-26T07:39:07.441Z,7.60
2023-06-26T07:44:10.652Z,8.90
2023-06-26T07:49:13.652Z,8.80
2023-06-26T07:54:17.744Z,11.30
2023-06-26T07:59:22.114Z,10.90
2023-06-26T08:04:27.297Z,8.60
2023-06-26T08:09:31.112Z,7.10
2023-06-26T08:14:35.040Z,5.40
2023-06-26T08:19:41.525Z,8.00
2023-06-26T08:24:44.797Z,6.90
2023-06-26T08:29:47.824Z,6.90
2023-06-26T08:34:51.887Z,10.50
2023-06-26T08:39:55.211Z,5.10
2023-06-26T08:45:02.210Z,4.70
2023-06-26T08:50:11.846Z,5.90
2023-06-26T08:55:15.488Z,6.30
2023-06-26T09:00:19.156Z,4.90
2023-06-26T09:05:22.139Z,4.10
2023-06-26T09:10:25.633Z,8.30
2023-06-26T09:15:44.281Z,3.70
2023-06-26T09:20:49.543Z,5.70
2023-06-26T09:25:52.881Z,5.10
2023-06-26T09:31:09.442Z,6.50
2023-06-26T09:36:36.354Z,4.40
2023-06-26T09:41:47.827Z,5.60
2023-06-26T09:46:50.900Z,6.20
2023-06-26T09:51:55.307Z,4.60
2023-06-26T09:57:14.574Z,4.10
2023-06-26T10:02:19.293Z,4.90
2023-06-26T10:07:24.538Z,3.70
2023-06-26T10:12:34.967Z,4.40
2023-06-26T10:17:37.999Z,3.70
2023-06-26T10:22:47.514Z,4.50
2023-06-26T10:28:01.368Z,4.20
2023-06-26T10:33:08.428Z,4.90
2023-06-26T10:39:13.378Z,3.70
2023-06-26T10:44:22.106Z,3.40
2023-06-26T10:49:30.749Z,3.40
2023-06-26T10:54:36.584Z,7.10
2023-06-26T10:59:41.051Z,5.20
2023-06-26T11:04:55.720Z,4.00
2023-06-26T11:10:01.036Z,2.90
2023-06-26T11:15:18.299Z,4.00
2023-06-26T11:20:21.316Z,5.20
2023-06-26T11:25:36.164Z,6.30
2023-06-26T11:30:42.419Z,4.40
2023-06-26T11:35:49.588Z,4.10
2023-06-26T11:40:55.060Z,3.80
2023-06-26T11:46:05.234Z,3.50
2023-06-26T11:51:31.540Z,3.10
2023-06-26T11:56:36.963Z,4.50
2023-06-26T12:01:42.134Z,5.60
2023-06-26T12:06:49.713Z,4.90
2023-06-26T12:11:56.427Z,3.40
2023-06-26T12:17:15.221Z,4.60
2023-06-26T12:22:22.159Z,3.60
2023-06-26T12:27:25.115Z,2.80
2023-06-26T12:32:28.417Z,3.10
2023-06-26T12:42:36.396Z,3.20
2023-06-26T12:47:39.766Z,6.80
2023-06-26T12:52:42.629Z,4.00
2023-06-26T12:57:45.659Z,2.60
2023-06-26T13:02:49.783Z,4.10
2023-06-26T13:07:56.413Z,4.10
2023-06-26T13:12:59.294Z,4.10
2023-06-26T13:18:02.327Z,3.00
2023-06-26T13:23:06.587Z,4.00
2023-06-26T13:28:13.616Z,4.30
2023-06-26T13:33:17.129Z,2.30
2023-06-26T13:38:25.560Z,2.50
2023-06-26T13:43:29.869Z,4.00
2023-06-26T13:48:40.228Z,2.70
2023-06-26T13:53:44.066Z,2.70
2023-06-26T13:58:47.089Z,2.80
2023-06-26T14:03:50.170Z,3.20
2023-06-26T14:08:53.105Z,2.60
2023-06-26T14:13:57.324Z,3.70
2023-06-26T14:24:06.290Z,3.10
2023-06-26T14:29:09.461Z,3.40
2023-06-26T14:39:19.392Z,3.20
2023-06-26T14:44:22.998Z,4.60
2023-06-26T14:49:26.620Z,3.70
2023-06-26T14:54:29.613Z,5.70
2023-06-26T14:59:32.632Z,2.90
2023-06-26T15:04:36.957Z,5.80
2023-06-26T15:09:40.042Z,4.90
2023-06-26T15:14:45.301Z,3.10
2023-06-26T15:19:48.967Z,5.20
2023-06-26T15:24:55.416Z,4.00
2023-06-26T15:29:59.635Z,4.90
2023-06-26T15:35:02.598Z,4.10
2023-06-26T15:40:06.657Z,3.80
2023-06-26T15:45:12.625Z,5.00
2023-06-26T15:50:15.619Z,3.40
2023-06-26T15:55:18.556Z,5.00
2023-06-26T16:00:22.047Z,4.00
2023-06-26T16:05:26.246Z,4.60
2023-06-26T16:10:30.595Z,3.20
2023-06-26T16:15:33.521Z,4.40
2023-06-26T16:20:36.756Z,5.40
2023-06-26T16:25:58.841Z,5.70
2023-06-26T16:31:02.304Z,5.60
2023-06-26T16:36:13.144Z,4.60
2023-06-26T16:41:19.103Z,3.10
2023-06-26T16:46:22.360Z,3.80
2023-06-26T16:51:25.355Z,4.40
2023-06-26T16:56:31.756Z,4.80
2023-06-26T17:01:36.087Z,5.30
2023-06-26T17:06:39.216Z,6.30
2023-06-26T17:11:42.941Z,5.00
2023-06-26T17:16:48.987Z,5.70
2023-06-26T17:21:53.342Z,3.70
2023-06-26T17:27:16.483Z,3.80
2023-06-26T17:32:22.249Z,4.80
2023-06-26T17:37:27.897Z,4.30
2023-06-26T17:42:30.856Z,4.70
2023-06-26T17:47:33.882Z,4.70
2023-06-26T17:52:37.154Z,4.00
2023-06-26T17:57:40.496Z,5.30
2023-06-26T18:02:43.635Z,6.00
2023-06-26T18:08:03.059Z,5.50
2023-06-26T18:13:07.256Z,6.40
2023-06-26T18:18:10.238Z,5.50
2023-06-26T18:23:14.520Z,5.50
2023-06-26T18:28:17.632Z,8.00
2023-06-26T18:33:23.460Z,5.80
2023-06-26T18:38:28.106Z,6.70
2023-06-26T18:43:33.649Z,8.30
2023-06-26T18:48:37.899Z,7.20
2023-06-26T18:53:42.516Z,8.20
2023-06-26T18:58:48.360Z,7.00
2023-06-26T19:03:53.656Z,7.90
2023-06-26T19:08:56.756Z,7.50
2023-06-26T19:13:59.846Z,6.20
2023-06-26T19:19:03.444Z,9.20
2023-06-26T19:24:06.511Z,7.00
2023-06-26T19:29:09.364Z,6.40
2023-06-26T19:34:12.413Z,7.60
2023-06-26T19:39:15.694Z,8.70
2023-06-26T19:44:18.994Z,6.60
2023-06-26T19:49:22.096Z,6.50
2023-06-26T19:54:27.434Z,7.10
2023-06-26T19:59:33.333Z,6.70
2023-06-26T20:04:37.069Z,7.60
2023-06-26T20:09:39.991Z,6.80
2023-06-26T20:14:42.948Z,6.00
2023-06-26T20:19:45.984Z,9.20
2023-06-26T20:24:48.980Z,8.30
2023-06-26T20:29:51.847Z,8.00
2023-06-26T20:34:55.163Z,8.40
2023-06-26T20:39:58.487Z,8.90
2023-06-26T20:45:01.897Z,9.70
2023-06-26T20:50:09.687Z,8.60
2023-06-26T21:00:16.988Z,9.80
2023-06-26T21:05:19.925Z,9.80
2023-06-26T21:10:22.895Z,11.70
2023-06-26T21:15:25.905Z,9.20
2023-06-26T21:20:28.890Z,7.90
2023-06-26T21:25:31.950Z,8.10
2023-06-26T21:30:35.353Z,9.40
2023-06-26T21:35:43.499Z,10.40
2023-06-26T21:40:47.636Z,9.60
2023-06-26T21:45:50.587Z,10.90
2023-06-26T21:50:55.876Z,9.50
2023-06-26T21:56:00.256Z,10.50
2023-06-26T22:07:07.136Z,8.60
2023-06-26T22:12:10.924Z,11.20
2023-06-26T22:17:13.906Z,10.50
2023-06-26T22:22:16.776Z,8.90
2023-06-26T22:27:19.903Z,9.40
2023-06-26T22:32:22.962Z,9.30
2023-06-26T22:37:26.076Z,8.10
2023-06-26T22:42:29.215Z,11.30
2023-06-26T22:47:32.733Z,9.90
2023-06-26T22:52:35.618Z,12.60
2023-06-26T22:57:39.114Z,12.00
2023-06-26T23:02:42.080Z,11.50
2023-06-26T23:07:45.238Z,11.00
2023-06-26T23:12:48.275Z,11.50
2023-06-26T23:17:51.251Z,10.80
2023-06-26T23:22:54.250Z,14.40
2023-06-26T23:28:02.079Z,11.10
2023-06-26T23:33:07.010Z,13.30
2023-06-26T23:38:10.208Z,11.50
2023-06-26T23:43:15.296Z,11.20
2023-06-26T23:48:18.234Z,12.00
2023-06-26T23:53:21.146Z,11.60
2023-06-26T23:58:24.072Z,12.90
